Time;durP1;ratioP1;P1;durP2;ratioP2;P2;SDS_P1;SDS_P2;PMS_P1;PMS_P2;Temp;Humidity;BMP_temperature;BMP_pressure;BME280_temperature;BME280_humidity;BME280_pressure;Samples;Min_cycle;Max_cycle;Signal;HPM_P1;HPM_P2
2023/12/18 00:00:04;;;;;;;0.00;0.00;;;7.90;72.60;;;;;;4796019;29;20313;-22
2023/12/18 00:02:31;;;;;;;0.00;0.00;;;7.90;72.60;;;;;;4796725;29;20996;-21
2023/12/18 00:04:58;;;;;;;0.00;0.00;;;7.80;72.60;;;;;;4798258;29;20209;-21
2023/12/18 00:07:30;;;;;;;0.00;0.00;;;7.80;72.60;;;;;;4798066;29;20223;-21
2023/12/18 00:09:57;;;;;;;0.00;0.00;;;7.80;72.60;;;;;;4796676;29;20221;-21
2023/12/18 00:12:24;;;;;;;0.00;0.00;;;7.80;72.60;;;;;;4798171;29;20278;-21
2023/12/18 00:14:54;;;;;;;0.00;0.00;;;7.80;72.60;;;;;;4795428;29;20308;-21
2023/12/18 00:17:21;;;;;;;0.00;0.00;;;7.80;72.60;;;;;;4797143;29;20220;-21
2023/12/18 00:19:53;;;;;;;0.00;0.00;;;7.80;72.50;;;;;;4796081;29;20359;-21
2023/12/18 00:22:20;;;;;;;0.00;0.00;;;7.80;72.50;;;;;;4796294;29;20205;-22
2023/12/18 00:24:50;;;;;;;0.00;0.00;;;7.80;72.50;;;;;;4796760;29;20274;-21
2023/12/18 00:27:20;;;;;;;0.00;0.00;;;7.80;72.50;;;;;;4793660;29;21870;-21
2023/12/18 00:29:47;;;;;;;0.00;0.00;;;7.70;72.40;;;;;;4791892;29;20213;-21
2023/12/18 00:32:15;;;;;;;0.00;0.00;;;7.70;72.50;;;;;;4796811;29;20217;-21
2023/12/18 00:34:47;;;;;;;0.00;0.00;;;7.70;72.50;;;;;;4795415;29;20208;-21
2023/12/18 00:37:14;;;;;;;0.00;0.00;;;7.70;72.50;;;;;;4794065;29;20238;-21
2023/12/18 00:39:42;;;;;;;0.00;0.00;;;7.70;72.50;;;;;;4804408;29;20253;-22
2023/12/18 00:42:11;;;;;;;0.00;0.00;;;7.70;72.50;;;;;;4810436;29;20307;-21
2023/12/18 00:44:38;;;;;;;0.00;0.00;;;7.70;72.50;;;;;;4795127;29;20221;-21
2023/12/18 00:47:06;;;;;;;0.00;0.00;;;7.70;72.50;;;;;;4796544;29;20635;-21
2023/12/18 00:49:33;;;;;;;0.00;0.00;;;7.70;72.60;;;;;;4788498;29;20724;-21
2023/12/18 00:52:00;;;;;;;0.00;0.00;;;7.60;72.50;;;;;;4796241;29;20249;-21
2023/12/18 00:54:28;;;;;;;0.00;0.00;;;7.60;72.50;;;;;;4794704;29;20218;-21
2023/12/18 00:56:57;;;;;;;0.00;0.00;;;7.60;72.40;;;;;;4797065;29;20598;-21
2023/12/18 00:59:24;;;;;;;0.00;0.00;;;7.60;72.50;;;;;;4790003;29;20226;-22
2023/12/18 01:01:52;;;;;;;0.00;0.00;;;7.60;72.50;;;;;;4797321;29;20221;-21
2023/12/18 01:04:24;;;;;;;0.00;0.00;;;7.60;72.40;;;;;;4795270;29;20605;-21
2023/12/18 01:06:55;;;;;;;0.00;0.00;;;7.60;72.50;;;;;;4797350;29;20654;-21
2023/12/18 01:09:22;;;;;;;0.00;0.00;;;7.60;72.50;;;;;;4791883;29;20201;-21
2023/12/18 01:11:55;;;;;;;0.00;0.00;;;7.50;72.40;;;;;;4795093;29;20247;-21
2023/12/18 01:14:22;;;;;;;0.00;0.00;;;7.50;72.40;;;;;;4779624;29;20209;-21
2023/12/18 01:16:54;;;;;;;0.00;0.00;;;7.50;72.40;;;;;;4780677;29;20239;-21
2023/12/18 01:19:24;;;;;;;0.00;0.00;;;7.50;72.50;;;;;;4797290;29;20229;-22
2023/12/18 01:21:54;;;;;;;0.00;0.00;;;7.50;72.50;;;;;;4774117;29;20226;-22
2023/12/18 01:24:23;;;;;;;0.00;0.00;;;7.50;72.50;;;;;;4799684;29;20216;-21
2023/12/18 01:26:51;;;;;;;0.00;0.00;;;7.50;72.40;;;;;;4800133;29;20316;-21
2023/12/18 01:29:21;;;;;;;0.00;0.00;;;7.40;72.40;;;;;;4795316;29;20213;-21
2023/12/18 01:31:50;;;;;;;0.00;0.00;;;7.40;72.40;;;;;;4795931;29;20213;-21
2023/12/18 01:34:19;;;;;;;0.00;0.00;;;7.40;72.40;;;;;;4783070;29;20221;-21
2023/12/18 01:36:49;;;;;;;0.00;0.00;;;7.40;72.40;;;;;;4793589;29;20371;-21
2023/12/18 01:39:16;;;;;;;0.00;0.00;;;7.40;72.40;;;;;;4800098;29;20201;-21
2023/12/18 01:41:43;;;;;;;0.00;0.00;;;7.40;72.40;;;;;;4793114;29;20231;-21
2023/12/18 01:44:11;;;;;;;0.00;0.00;;;7.30;72.40;;;;;;4794411;29;20209;-21
2023/12/18 01:46:40;;;;;;;0.00;0.00;;;7.30;72.40;;;;;;4791513;29;20229;-21
2023/12/18 01:49:12;;;;;;;0.00;0.00;;;7.30;72.40;;;;;;4798798;29;20628;-21
2023/12/18 01:51:42;;;;;;;0.00;0.00;;;7.30;72.40;;;;;;4799177;29;20212;-21
2023/12/18 01:54:12;;;;;;;0.00;0.00;;;7.30;72.40;;;;;;4800486;29;20221;-21
2023/12/18 01:56:40;;;;;;;0.00;0.00;;;7.30;72.40;;;;;;4800306;29;20225;-21
2023/12/18 01:59:09;;;;;;;0.00;0.00;;;7.30;72.40;;;;;;4798236;29;20213;-21
2023/12/18 02:01:37;;;;;;;0.00;0.00;;;7.30;72.50;;;;;;4800285;29;20224;-21
2023/12/18 02:04:04;;;;;;;0.00;0.00;;;7.30;72.50;;;;;;4800236;29;20304;-21
2023/12/18 02:06:34;;;;;;;0.00;0.00;;;7.30;72.50;;;;;;4791751;29;20300;-21
2023/12/18 02:09:02;;;;;;;0.00;0.00;;;7.30;72.60;;;;;;4799328;29;20209;-21
2023/12/18 02:11:32;;;;;;;0.00;0.00;;;7.30;72.60;;;;;;4802123;29;20205;-21
2023/12/18 02:14:00;;;;;;;0.00;0.00;;;7.30;72.60;;;;;;4800236;29;20213;-21
2023/12/18 02:16:29;;;;;;;0.00;0.00;;;7.30;72.70;;;;;;4798157;29;20239;-21
2023/12/18 02:18:59;;;;;;;0.00;0.00;;;7.30;72.70;;;;;;4800117;29;20221;-21
2023/12/18 02:21:29;;;;;;;0.00;0.00;;;7.30;72.70;;;;;;4798288;29;20239;-21
2023/12/18 02:23:59;;;;;;;0.00;0.00;;;7.30;72.70;;;;;;4796847;29;20462;-21
2023/12/18 02:26:26;;;;;;;0.00;0.00;;;7.30;72.70;;;;;;4792841;29;20262;-21
2023/12/18 02:28:58;;;;;;;0.00;0.00;;;7.30;72.80;;;;;;4797976;29;20209;-21
2023/12/18 02:31:25;;;;;;;0.00;0.00;;;7.30;72.80;;;;;;4797064;29;20218;-21
2023/12/18 02:33:53;;;;;;;0.00;0.00;;;7.40;72.80;;;;;;4784342;29;20687;-21
2023/12/18 02:36:22;;;;;;;0.00;0.00;;;7.40;72.90;;;;;;4798324;29;20259;-21
2023/12/18 02:38:52;;;;;;;0.00;0.00;;;7.40;72.80;;;;;;4790456;29;20324;-21
2023/12/18 02:41:22;;;;;;;0.00;0.00;;;7.40;72.80;;;;;;4799372;29;20225;-21
2023/12/18 02:43:49;;;;;;;0.00;0.00;;;7.40;72.80;;;;;;4794039;29;20710;-21
2023/12/18 02:46:16;;;;;;;0.00;0.00;;;7.40;72.70;;;;;;4791531;29;20206;-21
2023/12/18 02:48:45;;;;;;;0.00;0.00;;;7.40;72.70;;;;;;4792222;29;20316;-20
2023/12/18 02:51:13;;;;;;;0.00;0.00;;;7.50;72.80;;;;;;4794378;29;20280;-21
2023/12/18 02:53:43;;;;;;;0.00;0.00;;;7.50;72.70;;;;;;4767734;29;20245;-21
2023/12/18 02:56:15;;;;;;;0.00;0.00;;;7.50;72.80;;;;;;4781728;29;20228;-21
2023/12/18 02:58:47;;;;;;;0.00;0.00;;;7.50;72.80;;;;;;4767832;29;20210;-21
2023/12/18 03:01:14;;;;;;;0.00;0.00;;;7.50;72.90;;;;;;4781637;29;20237;-21
2023/12/18 03:03:51;;;;;;;0.00;0.00;;;7.50;72.90;;;;;;4788546;29;20548;-21
2023/12/18 03:06:24;;;;;;;0.00;0.00;;;7.50;73.00;;;;;;4783563;29;20205;-21
2023/12/18 03:08:55;;;;;;;0.00;0.00;;;7.50;72.90;;;;;;4791843;29;20318;-21
2023/12/18 03:11:25;;;;;;;0.00;0.00;;;7.50;72.90;;;;;;4788468;29;20228;-21
2023/12/18 03:13:52;;;;;;;0.00;0.00;;;7.60;73.00;;;;;;4797428;29;20221;-21
2023/12/18 03:16:19;;;;;;;0.00;0.00;;;7.50;72.90;;;;;;4791026;29;20244;-22
2023/12/18 03:18:49;;;;;;;0.00;0.00;;;7.60;73.00;;;;;;4792339;29;20221;-21
2023/12/18 03:21:19;;;;;;;0.00;0.00;;;7.60;73.00;;;;;;4803189;29;20562;-21
2023/12/18 03:23:49;;;;;;;0.00;0.00;;;7.60;73.00;;;;;;4797325;29;20212;-21
2023/12/18 03:26:21;;;;;;;0.00;0.00;;;7.60;73.70;;;;;;4796814;29;20204;-21
2023/12/18 03:28:48;;;;;;;0.00;0.00;;;7.70;73.10;;;;;;4792290;29;20220;-21
2023/12/18 03:31:18;;;;;;;0.00;0.00;;;7.70;73.10;;;;;;4792855;29;20225;-21
2023/12/18 03:33:50;;;;;;;0.00;0.00;;;7.70;73.00;;;;;;4792247;29;20708;-21
2023/12/18 03:36:17;;;;;;;0.00;0.00;;;7.70;73.10;;;;;;4779915;30;20256;-22
2023/12/18 03:38:49;;;;;;;0.00;0.00;;;7.70;73.10;;;;;;4797519;29;20248;-21
2023/12/18 03:41:17;;;;;;;0.00;0.00;;;7.80;73.10;;;;;;4799407;29;20216;-21
2023/12/18 03:43:50;;;;;;;0.00;0.00;;;7.70;73.00;;;;;;4791898;29;20286;-21
2023/12/18 03:46:17;;;;;;;0.00;0.00;;;7.80;73.10;;;;;;4788470;29;20323;-21
2023/12/18 03:48:47;;;;;;;0.00;0.00;;;7.80;73.10;;;;;;4781552;29;20218;-21
2023/12/18 03:51:19;;;;;;;0.00;0.00;;;7.80;73.00;;;;;;4789295;29;20228;-21
2023/12/18 03:53:49;;;;;;;0.00;0.00;;;7.80;73.00;;;;;;4800739;29;20204;-21
2023/12/18 03:56:23;;;;;;;0.00;0.00;;;7.80;73.10;;;;;;4800509;29;20229;-21
2023/12/18 03:58:57;;;;;;;0.00;0.00;;;7.80;73.10;;;;;;4800821;29;20578;-22
2023/12/18 04:01:33;;;;;;;0.00;0.00;;;7.80;73.10;;;;;;4799026;29;20650;-21
2023/12/18 04:04:05;;;;;;;0.00;0.00;;;7.80;73.10;;;;;;4793583;29;20201;-21
2023/12/18 04:06:34;;;;;;;0.00;0.00;;;7.80;73.10;;;;;;4798661;29;20274;-21
2023/12/18 04:09:02;;;;;;;0.00;0.00;;;7.80;73.20;;;;;;4798436;29;20206;-21
2023/12/18 04:11:29;;;;;;;0.00;0.00;;;7.90;73.30;;;;;;4797106;29;20217;-21
2023/12/18 04:13:59;;;;;;;0.00;0.00;;;7.90;73.30;;;;;;4798557;29;20221;-21
2023/12/18 04:16:29;;;;;;;0.00;0.00;;;7.90;73.30;;;;;;4796847;29;20217;-20
2023/12/18 04:18:58;;;;;;;0.00;0.00;;;7.90;73.20;;;;;;4797643;29;20653;-21
2023/12/18 04:21:26;;;;;;;0.00;0.00;;;7.90;73.30;;;;;;4784830;29;20242;-21
2023/12/18 04:23:53;;;;;;;0.00;0.00;;;7.90;73.30;;;;;;4782738;29;20212;-21
2023/12/18 04:26:22;;;;;;;0.00;0.00;;;8.00;73.30;;;;;;4789083;29;20575;-20
2023/12/18 04:28:50;;;;;;;0.00;0.00;;;8.00;73.40;;;;;;4795422;29;20224;-21
2023/12/18 04:31:21;;;;;;;0.00;0.00;;;8.00;74.00;;;;;;4777796;29;20617;-21
2023/12/18 04:33:51;;;;;;;0.00;0.00;;;8.00;73.40;;;;;;4796103;29;20250;-20
2023/12/18 04:36:21;;;;;;;0.00;0.00;;;8.00;73.40;;;;;;4789221;29;20302;-21
2023/12/18 04:38:48;;;;;;;0.00;0.00;;;8.00;73.40;;;;;;4781501;29;20615;-32
2023/12/18 04:41:23;;;;;;;0.00;0.00;;;8.00;73.40;;;;;;4781926;29;20233;-29
2023/12/18 04:43:51;;;;;;;0.00;0.00;;;8.00;73.40;;;;;;4796035;29;20217;-30
2023/12/18 04:46:18;;;;;;;0.00;0.00;;;8.10;73.40;;;;;;4790994;29;20273;-32
2023/12/18 04:48:47;;;;;;;0.00;0.00;;;8.10;73.40;;;;;;4795521;29;20306;-30
2023/12/18 04:51:15;;;;;;;0.00;0.00;;;8.10;73.40;;;;;;4790023;29;20293;-32
2023/12/18 04:53:44;;;;;;;0.00;0.00;;;8.10;73.40;;;;;;4797457;29;20219;-30
2023/12/18 04:56:11;;;;;;;0.00;0.00;;;8.10;73.40;;;;;;4789965;29;20206;-32
2023/12/18 04:58:43;;;;;;;0.00;0.00;;;8.10;73.50;;;;;;4777272;30;20224;-30
2023/12/18 05:01:10;;;;;;;0.00;0.00;;;8.20;73.60;;;;;;4788354;29;20231;-30
2023/12/18 05:03:38;;;;;;;0.00;0.00;;;8.20;73.60;;;;;;4799534;29;20311;-32
2023/12/18 05:06:26;;;;;;;0.00;0.00;;;8.20;73.60;;;;;;4783749;29;20754;-29
2023/12/18 05:08:56;;;;;;;0.00;0.00;;;8.20;73.60;;;;;;4799894;29;20209;-31
2023/12/18 05:11:25;;;;;;;0.00;0.00;;;8.20;73.60;;;;;;4791496;29;20312;-33
2023/12/18 05:13:57;;;;;;;0.00;0.00;;;8.30;73.70;;;;;;4781763;29;20217;-32
2023/12/18 05:16:26;;;;;;;0.00;0.00;;;8.30;73.70;;;;;;4785953;29;20451;-31
2023/12/18 05:18:56;;;;;;;0.00;0.00;;;8.30;73.70;;;;;;4798108;29;20220;-30
2023/12/18 05:21:24;;;;;;;0.00;0.00;;;8.30;73.70;;;;;;4799845;29;20240;-32
2023/12/18 05:23:51;;;;;;;0.00;0.00;;;8.30;73.70;;;;;;4786756;29;20226;-30
2023/12/18 05:26:21;;;;;;;0.00;0.00;;;8.30;73.70;;;;;;4783188;29;20213;-34
2023/12/18 05:28:50;;;;;;;0.00;0.00;;;8.40;73.70;;;;;;4808522;29;20677;-32
2023/12/18 05:31:20;;;;;;;0.00;0.00;;;8.40;73.70;;;;;;4800549;29;20236;-31
2023/12/18 05:33:50;;;;;;;0.00;0.00;;;8.40;73.70;;;;;;4794346;29;20229;-31
2023/12/18 05:36:20;;;;;;;0.00;0.00;;;8.40;73.70;;;;;;4776572;29;20505;-33
2023/12/18 05:38:47;;;;;;;0.00;0.00;;;8.40;73.70;;;;;;4792697;29;20732;-32
2023/12/18 05:41:14;;;;;;;0.00;0.00;;;8.50;73.70;;;;;;4797810;29;20225;-33
2023/12/18 05:43:46;;;;;;;0.00;0.00;;;8.50;73.80;;;;;;4800537;29;20228;-33
2023/12/18 05:46:16;;;;;;;0.00;0.00;;;8.50;73.80;;;;;;4793604;29;20232;-31
2023/12/18 05:48:43;;;;;;;0.00;0.00;;;8.50;73.70;;;;;;4811367;29;20693;-32
2023/12/18 05:51:22;;;;;;;0.00;0.00;;;8.50;73.70;;;;;;4809752;29;20693;-31
2023/12/18 05:53:52;;;;;;;0.00;0.00;;;8.50;73.80;;;;;;4800734;29;20461;-30
2023/12/18 05:56:21;;;;;;;0.00;0.00;;;8.50;73.70;;;;;;4797482;29;20664;-33
2023/12/18 05:58:52;;;;;;;0.00;0.00;;;8.50;73.80;;;;;;4799014;29;20221;-31
2023/12/18 06:01:22;;;;;;;0.00;0.00;;;8.50;73.70;;;;;;4797768;29;20233;-31
2023/12/18 06:03:54;;;;;;;0.00;0.00;;;8.50;74.50;;;;;;4798691;29;20213;-31
2023/12/18 06:06:21;;;;;;;0.00;0.00;;;8.60;73.80;;;;;;4796491;29;20219;-32
2023/12/18 06:08:49;;;;;;;0.00;0.00;;;8.50;73.70;;;;;;4790057;29;20711;-31
2023/12/18 06:11:16;;;;;;;0.00;0.00;;;8.50;73.70;;;;;;4785674;29;20207;-31
2023/12/18 06:13:46;;;;;;;0.00;0.00;;;8.60;73.80;;;;;;4794891;29;20216;-32
2023/12/18 06:16:13;;;;;;;0.00;0.00;;;8.50;73.70;;;;;;4796157;29;20639;-33
2023/12/18 06:18:40;;;;;;;0.00;0.00;;;8.50;73.80;;;;;;4798693;29;20313;-29
2023/12/18 06:21:12;;;;;;;0.00;0.00;;;8.60;73.80;;;;;;4790584;29;20261;-32
2023/12/18 06:23:45;;;;;;;0.00;0.00;;;8.60;74.10;;;;;;4808045;29;20213;-32
2023/12/18 06:26:17;;;;;;;0.00;0.00;;;8.60;73.70;;;;;;4795117;29;20317;-32
2023/12/18 06:28:46;;;;;;;0.00;0.00;;;8.50;73.60;;;;;;4792803;29;20303;-32
2023/12/18 06:31:13;;;;;;;0.00;0.00;;;8.50;73.70;;;;;;4795724;29;20290;-31
2023/12/18 06:33:41;;;;;;;0.00;0.00;;;8.50;73.70;;;;;;4801192;29;20690;-32
2023/12/18 06:36:08;;;;;;;0.00;0.00;;;8.50;73.70;;;;;;4800873;29;20249;-33
2023/12/18 06:38:38;;;;;;;0.00;0.00;;;8.50;73.70;;;;;;4796510;29;20810;-32
2023/12/18 06:41:05;;;;;;;0.00;0.00;;;8.50;73.60;;;;;;4776570;29;20228;-32
2023/12/18 06:43:35;;;;;;;0.00;0.00;;;8.50;73.70;;;;;;4788752;29;20214;-30
2023/12/18 06:46:05;;;;;;;0.00;0.00;;;8.50;73.70;;;;;;4791641;29;20275;-31
2023/12/18 06:48:39;;;;;;;0.00;0.00;;;8.50;73.60;;;;;;4791476;29;21121;-31
2023/12/18 06:51:14;;;;;;;0.00;0.00;;;8.50;73.60;;;;;;4795207;29;20323;-31
2023/12/18 06:53:43;;;;;;;0.00;0.00;;;8.50;73.60;;;;;;4785407;29;20652;-32
2023/12/18 06:56:15;;;;;;;0.00;0.00;;;8.40;73.60;;;;;;4795525;29;20204;-32
2023/12/18 06:58:44;;;;;;;0.00;0.00;;;8.40;73.60;;;;;;4793051;29;20220;-32
2023/12/18 07:01:17;;;;;;;0.00;0.00;;;8.40;73.60;;;;;;4792821;29;20232;-30
2023/12/18 07:03:47;;;;;;;0.00;0.00;;;8.40;73.60;;;;;;4783737;29;20649;-30
2023/12/18 07:06:19;;;;;;;0.00;0.00;;;8.40;73.70;;;;;;4779220;30;20599;-31
2023/12/18 07:08:51;;;;;;;0.00;0.00;;;8.40;73.70;;;;;;4783065;29;20220;-32
2023/12/18 07:11:18;;;;;;;0.00;0.00;;;8.40;73.70;;;;;;4783930;29;20301;-32
2023/12/18 07:13:47;;;;;;;0.00;0.00;;;8.40;73.70;;;;;;4798890;29;20217;-31
2023/12/18 07:16:22;;;;;;;0.00;0.00;;;8.40;73.70;;;;;;4792355;29;20226;-31
2023/12/18 07:18:51;;;;;;;0.00;0.00;;;8.40;73.80;;;;;;4798278;29;20246;-30
2023/12/18 07:21:21;;;;;;;0.00;0.00;;;8.40;73.70;;;;;;4813335;29;20237;-33
2023/12/18 07:23:51;;;;;;;0.00;0.00;;;8.40;73.70;;;;;;4786621;29;20217;-31
2023/12/18 07:26:18;;;;;;;0.00;0.00;;;8.30;73.70;;;;;;4791093;29;20532;-30
2023/12/18 07:28:45;;;;;;;0.00;0.00;;;8.30;73.70;;;;;;4796257;29;20692;-30
2023/12/18 07:31:13;;;;;;;0.00;0.00;;;8.30;73.70;;;;;;4795292;29;20266;-31
2023/12/18 07:33:44;;;;;;;0.00;0.00;;;8.30;73.70;;;;;;4796664;29;20282;-33
2023/12/18 07:36:14;;;;;;;0.00;0.00;;;8.30;73.70;;;;;;4795969;29;20339;-31
2023/12/18 07:38:45;;;;;;;0.00;0.00;;;8.40;73.80;;;;;;4799723;29;20791;-34
2023/12/18 07:41:14;;;;;;;0.00;0.00;;;8.30;73.70;;;;;;4799184;29;20309;-33
2023/12/18 07:43:46;;;;;;;0.00;0.00;;;8.30;73.80;;;;;;4792858;29;20244;-35
2023/12/18 07:46:19;;;;;;;0.00;0.00;;;8.30;73.80;;;;;;4788139;29;20273;-30
2023/12/18 07:48:56;;;;;;;0.00;0.00;;;8.40;73.90;;;;;;4779796;29;20691;-31
2023/12/18 07:51:25;;;;;;;0.00;0.00;;;8.40;73.90;;;;;;4785033;29;20554;-32
2023/12/18 07:53:53;;;;;;;0.00;0.00;;;8.40;73.90;;;;;;4783636;29;20277;-31
2023/12/18 07:56:22;;;;;;;0.00;0.00;;;8.30;73.80;;;;;;4794664;29;20221;-34
2023/12/18 07:58:49;;;;;;;0.00;0.00;;;8.30;73.80;;;;;;4791123;29;20735;-35
2023/12/18 08:01:19;;;;;;;0.00;0.00;;;8.30;73.80;;;;;;4787060;29;20286;-33
2023/12/18 08:03:47;;;;;;;0.00;0.00;;;8.30;73.80;;;;;;4781604;29;20276;-31
2023/12/18 08:06:17;;;;;;;0.00;0.00;;;8.40;73.90;;;;;;4757060;29;20206;-34
2023/12/18 08:08:47;;;;;;;0.00;0.00;;;8.30;73.90;;;;;;4786750;29;20201;-33
2023/12/18 08:11:14;;;;;;;0.00;0.00;;;8.30;73.80;;;;;;4789655;29;20476;-34
2023/12/18 08:13:42;;;;;;;0.00;0.00;;;8.30;73.80;;;;;;4785994;29;20230;-32
2023/12/18 08:16:11;;;;;;;0.00;0.00;;;8.30;73.80;;;;;;4774500;29;20225;-33
2023/12/18 08:18:42;;;;;;;0.00;0.00;;;8.30;73.70;;;;;;4799940;29;20217;-31
2023/12/18 08:21:13;;;;;;;0.00;0.00;;;8.30;73.80;;;;;;4795107;29;20229;-31
2023/12/18 08:23:41;;;;;;;0.00;0.00;;;8.30;73.80;;;;;;4785118;29;20296;-32
2023/12/18 08:26:12;;;;;;;0.00;0.00;;;8.30;73.80;;;;;;4790682;29;20244;-32
2023/12/18 08:28:43;;;;;;;0.00;0.00;;;8.30;73.80;;;;;;4778538;29;20801;-30
2023/12/18 08:31:11;;;;;;;0.00;0.00;;;8.30;73.80;;;;;;4789258;29;20212;-33
2023/12/18 08:33:39;;;;;;;0.00;0.00;;;8.30;73.80;;;;;;4791100;29;20233;-32
2023/12/18 08:36:06;;;;;;;0.00;0.00;;;8.30;73.80;;;;;;4788851;29;20294;-33
2023/12/18 08:38:34;;;;;;;0.00;0.00;;;8.30;73.80;;;;;;4788091;29;20222;-30
2023/12/18 08:41:03;;;;;;;0.00;0.00;;;8.30;73.80;;;;;;4790824;29;20209;-32
2023/12/18 08:43:36;;;;;;;0.00;0.00;;;8.30;73.80;;;;;;4788191;29;20202;-32
2023/12/18 08:46:08;;;;;;;0.00;0.00;;;8.30;73.80;;;;;;4777178;29;20224;-32
2023/12/18 08:48:40;;;;;;;0.00;0.00;;;8.20;73.90;;;;;;4787156;29;20652;-29
2023/12/18 08:51:09;;;;;;;0.00;0.00;;;8.20;73.80;;;;;;4800787;29;20919;-31
2023/12/18 08:53:37;;;;;;;0.00;0.00;;;8.30;73.90;;;;;;4796870;29;20214;-31
2023/12/18 08:56:05;;;;;;;0.00;0.00;;;8.20;73.80;;;;;;4795941;29;20221;-32
2023/12/18 08:58:34;;;;;;;0.00;0.00;;;8.20;73.80;;;;;;4801169;29;20213;-31
2023/12/18 09:01:06;;;;;;;0.00;0.00;;;8.20;73.80;;;;;;4793552;29;20687;-30
2023/12/18 09:03:36;;;;;;;0.00;0.00;;;8.20;73.70;;;;;;4798167;29;20226;-31
2023/12/18 09:06:08;;;;;;;0.00;0.00;;;8.20;73.60;;;;;;4801796;29;20331;-33
2023/12/18 09:08:39;;;;;;;0.00;0.00;;;8.20;73.70;;;;;;4801709;29;20213;-31
2023/12/18 09:11:07;;;;;;;0.00;0.00;;;8.20;73.70;;;;;;4793130;29;20215;-33
2023/12/18 09:13:38;;;;;;;0.00;0.00;;;8.20;73.60;;;;;;4805407;29;20205;-30
2023/12/18 09:16:08;;;;;;;0.00;0.00;;;8.10;73.60;;;;;;4797107;29;20313;-32
2023/12/18 09:18:37;;;;;;;0.00;0.00;;;8.10;73.70;;;;;;4803109;29;20212;-30
2023/12/18 09:21:05;;;;;;;0.00;0.00;;;8.10;73.70;;;;;;4805471;29;20212;-30
2023/12/18 09:23:37;;;;;;;0.00;0.00;;;8.10;73.70;;;;;;4805685;29;20961;-32
2023/12/18 09:26:07;;;;;;;0.00;0.00;;;8.00;73.70;;;;;;4793640;29;20213;-31
2023/12/18 09:28:38;;;;;;;0.00;0.00;;;8.10;73.80;;;;;;4804043;29;20205;-31
2023/12/18 09:31:10;;;;;;;0.00;0.00;;;8.10;73.80;;;;;;4795907;29;20697;-33
2023/12/18 09:33:37;;;;;;;0.10;0.00;;;8.10;73.80;;;;;;4784484;30;20697;-29
2023/12/18 09:36:08;;;;;;;0.00;0.00;;;8.10;73.70;;;;;;4791906;29;20260;-32
2023/12/18 09:38:36;;;;;;;0.00;0.00;;;8.00;73.70;;;;;;4792022;29;20300;-31
2023/12/18 09:41:04;;;;;;;0.00;0.00;;;8.00;73.70;;;;;;4797367;29;20225;-30
2023/12/18 09:43:31;;;;;;;0.00;0.00;;;8.10;73.70;;;;;;4785887;29;20229;-33
2023/12/18 09:45:58;;;;;;;0.00;0.00;;;8.00;73.70;;;;;;4790133;29;20209;-21
2023/12/18 09:48:26;;;;;;;0.00;0.00;;;8.00;73.70;;;;;;4785301;29;20324;-21
2023/12/18 09:50:53;;;;;;;0.00;0.00;;;8.00;73.70;;;;;;4788959;29;20644;-22
2023/12/18 09:53:23;;;;;;;0.00;0.00;;;8.00;73.70;;;;;;4782175;29;20214;-20
2023/12/18 09:55:54;;;;;;;0.00;0.00;;;8.00;73.70;;;;;;4798021;29;20382;-21
2023/12/18 09:58:25;;;;;;;0.00;0.00;;;8.00;73.70;;;;;;4781411;29;20707;-21
2023/12/18 10:00:52;;;;;;;0.00;0.00;;;7.90;73.60;;;;;;4798353;29;20208;-21
2023/12/18 10:03:20;;;;;;;0.00;0.00;;;7.90;73.60;;;;;;4790160;29;20246;-21
2023/12/18 10:05:52;;;;;;;0.00;0.00;;;7.90;73.60;;;;;;4800076;29;20311;-21
2023/12/18 10:08:19;;;;;;;0.00;0.00;;;7.90;73.70;;;;;;4798309;29;20306;-21
2023/12/18 10:10:46;;;;;;;0.00;0.00;;;7.90;73.80;;;;;;4815699;29;20656;-21
2023/12/18 10:13:14;;;;;;;0.00;0.00;;;7.90;73.80;;;;;;4799667;29;20577;-21
2023/12/18 10:15:44;;;;;;;0.00;0.00;;;7.90;73.80;;;;;;4779256;29;20821;-22
2023/12/18 10:18:16;;;;;;;0.00;0.00;;;7.90;73.80;;;;;;4795970;29;20606;-20
2023/12/18 10:20:48;;;;;;;0.00;0.00;;;7.90;73.70;;;;;;4801269;29;20221;-20
2023/12/18 10:23:20;;;;;;;0.00;0.00;;;7.90;73.80;;;;;;4794329;29;20236;-21
2023/12/18 10:25:52;;;;;;;0.00;0.00;;;7.90;73.80;;;;;;4788349;29;20220;-21
2023/12/18 10:28:19;;;;;;;0.00;0.00;;;7.90;73.80;;;;;;4801394;29;20756;-21
2023/12/18 10:30:47;;;;;;;0.00;0.00;;;7.90;73.80;;;;;;4784470;29;20246;-21
2023/12/18 10:33:14;;;;;;;0.00;0.00;;;7.90;73.90;;;;;;4798523;29;20706;-21
2023/12/18 10:35:42;;;;;;;0.00;0.00;;;7.90;73.80;;;;;;4797010;29;20611;-21
2023/12/18 10:38:10;;;;;;;0.00;0.00;;;7.90;73.90;;;;;;4802650;29;20217;-21
2023/12/18 10:40:40;;;;;;;0.00;0.00;;;7.90;73.90;;;;;;4799624;29;20231;-21
2023/12/18 10:43:24;;;;;;;0.00;0.00;;;7.90;73.90;;;;;;4793558;29;20254;-22
2023/12/18 10:45:56;;;;;;;0.00;0.00;;;7.90;73.90;;;;;;4797127;29;20209;-21
2023/12/18 10:48:27;;;;;;;0.00;0.00;;;7.90;73.80;;;;;;4797608;29;20209;-21
2023/12/18 10:50:59;;;;;;;0.00;0.00;;;7.90;73.80;;;;;;4804897;29;20209;-22
2023/12/18 10:53:35;;;;;;;0.00;0.00;;;7.90;73.90;;;;;;4795011;29;20232;-32
2023/12/18 10:56:06;;;;;;;0.00;0.00;;;7.90;73.90;;;;;;4799752;29;20273;-32
2023/12/18 10:58:38;;;;;;;0.00;0.00;;;7.90;73.90;;;;;;4784536;29;20221;-33
2023/12/18 11:01:13;;;;;;;0.00;0.00;;;7.90;73.90;;;;;;4790215;29;20252;-32
2023/12/18 11:03:41;;;;;;;0.00;0.00;;;7.90;74.00;;;;;;4799821;29;20255;-32
2023/12/18 11:06:11;;;;;;;0.00;0.00;;;7.90;73.90;;;;;;4798785;29;20308;-33
2023/12/18 11:08:39;;;;;;;0.00;0.00;;;7.90;73.90;;;;;;4790384;29;20218;-33
2023/12/18 11:11:10;;;;;;;0.00;0.00;;;7.90;73.90;;;;;;4798086;29;20232;-33
2023/12/18 11:14:03;;;;;;;0.00;0.00;;;7.90;73.90;;;;;;4802232;29;20224;-31
2023/12/18 11:16:39;;;;;;;0.00;0.00;;;7.90;73.90;;;;;;4797805;29;20319;-31
2023/12/18 11:19:24;;;;;;;0.00;0.00;;;7.90;73.90;;;;;;4786689;29;20217;-33
2023/12/18 11:21:54;;;;;;;0.00;0.00;;;7.90;73.90;;;;;;4795502;29;20211;-33
2023/12/18 11:24:26;;;;;;;0.00;0.00;;;7.90;73.90;;;;;;4791888;29;20206;-34
2023/12/18 11:26:54;;;;;;;0.00;0.00;;;7.90;74.00;;;;;;4790450;29;20368;-31
2023/12/18 11:29:45;;;;;;;0.00;0.00;;;7.90;74.00;;;;;;4799199;29;20221;-31
2023/12/18 11:32:45;;;;;;;0.00;0.00;;;7.90;74.10;;;;;;4798613;29;20731;-31
2023/12/18 11:35:14;;;;;;;0.00;0.00;;;7.90;74.10;;;;;;4788794;29;20587;-33
2023/12/18 11:37:49;;;;;;;0.00;0.00;;;8.00;74.10;;;;;;4784434;29;20336;-34
2023/12/18 11:40:31;;;;;;;0.00;0.00;;;8.00;74.10;;;;;;4801002;29;20205;-33
2023/12/18 11:42:59;;;;;;;0.00;0.00;;;8.00;74.20;;;;;;4797048;29;20692;-32
2023/12/18 11:45:26;;;;;;;0.00;0.00;;;8.00;74.10;;;;;;4796523;29;20237;-34
2023/12/18 11:48:07;;;;;;;0.00;0.00;;;8.00;74.20;;;;;;4798348;29;20209;-32
2023/12/18 11:50:38;;;;;;;0.00;0.00;;;8.00;74.20;;;;;;4795678;29;20201;-31
2023/12/18 11:53:18;;;;;;;0.00;0.00;;;8.00;74.20;;;;;;4799556;29;20221;-33
2023/12/18 11:55:52;;;;;;;0.00;0.00;;;8.00;74.20;;;;;;4791408;29;20642;-29
2023/12/18 11:58:24;;;;;;;0.00;0.00;;;8.00;74.20;;;;;;4798210;29;20213;-29
2023/12/18 12:00:51;;;;;;;0.00;0.00;;;8.10;74.20;;;;;;4798597;29;20247;-31
2023/12/18 12:03:22;;;;;;;0.00;0.00;;;8.10;74.20;;;;;;4780211;29;20251;-32
2023/12/18 12:05:51;;;;;;;0.00;0.00;;;8.10;74.20;;;;;;4786803;29;20209;-32
2023/12/18 12:08:20;;;;;;;0.00;0.00;;;8.10;74.10;;;;;;4783106;29;20213;-30
2023/12/18 12:10:52;;;;;;;0.00;0.00;;;8.10;74.20;;;;;;4792162;29;20217;-32
2023/12/18 12:13:24;;;;;;;0.00;0.00;;;8.20;74.20;;;;;;4792822;29;20235;-30
2023/12/18 12:15:58;;;;;;;0.00;0.00;;;8.10;74.30;;;;;;4797693;29;20324;-33
2023/12/18 12:18:31;;;;;;;0.00;0.00;;;8.20;74.40;;;;;;4782028;29;20273;-32
2023/12/18 12:21:01;;;;;;;0.00;0.00;;;8.20;74.40;;;;;;4797901;29;20224;-30
2023/12/18 12:23:31;;;;;;;0.00;0.00;;;8.20;74.40;;;;;;4780955;29;20308;-31
2023/12/18 12:26:00;;;;;;;0.00;0.00;;;8.20;74.40;;;;;;4796777;29;20236;-33
2023/12/18 12:28:33;;;;;;;0.00;0.00;;;8.20;74.40;;;;;;4783253;29;20217;-33
2023/12/18 12:31:01;;;;;;;0.00;0.00;;;8.30;74.40;;;;;;4780929;29;20204;-31
2023/12/18 12:33:42;;;;;;;0.00;0.00;;;8.30;74.50;;;;;;4790094;29;20303;-31
2023/12/18 12:36:10;;;;;;;0.00;0.00;;;8.30;74.50;;;;;;4780933;29;20832;-33
2023/12/18 12:38:44;;;;;;;0.00;0.00;;;8.30;74.40;;;;;;4797576;29;20229;-33
2023/12/18 12:41:14;;;;;;;0.00;0.00;;;8.40;74.60;;;;;;4793142;29;20316;-31
2023/12/18 12:43:44;;;;;;;0.00;0.00;;;8.40;74.50;;;;;;4796388;29;20286;-34
2023/12/18 12:46:12;;;;;;;0.00;0.00;;;8.40;75.30;;;;;;4783481;29;20217;-32
2023/12/18 12:48:48;;;;;;;0.00;0.00;;;8.40;74.50;;;;;;4785120;29;20224;-33
2023/12/18 12:51:15;;;;;;;0.00;0.00;;;8.40;74.50;;;;;;4791458;29;20270;-31
2023/12/18 12:53:46;;;;;;;0.00;0.00;;;8.50;74.50;;;;;;4791855;29;20224;-39
2023/12/18 12:56:13;;;;;;;0.00;0.00;;;8.50;74.50;;;;;;4793532;29;20223;-30
2023/12/18 12:58:40;;;;;;;0.00;0.00;;;8.50;74.50;;;;;;4798769;29;20213;-30
2023/12/18 13:01:07;;;;;;;0.00;0.00;;;8.50;74.50;;;;;;4798244;29;20236;-30
2023/12/18 13:03:35;;;;;;;0.00;0.00;;;8.50;74.50;;;;;;4789329;29;20320;-30
2023/12/18 13:06:03;;;;;;;0.00;0.00;;;8.50;74.40;;;;;;4787793;29;20262;-33
2023/12/18 13:08:35;;;;;;;0.00;0.00;;;8.60;74.50;;;;;;4794104;29;20216;-32
2023/12/18 13:11:08;;;;;;;0.00;0.00;;;8.60;74.50;;;;;;4780737;29;20228;-32